Time;durP1;ratioP1;P1;durP2;ratioP2;P2;SDS_P1;SDS_P2;PMS_P1;PMS_P2;Temp;Humidity;BMP_temperature;BMP_pressure;BME280_temperature;BME280_humidity;BME280_pressure;Samples;Min_cycle;Max_cycle;Signal;HPM_P1;HPM_P2
2024/01/27 00:02:07;;;;;;;20.17;5.43;;;;;;;;;;4974032;28;20059;-76
2024/01/27 00:04:36;;;;;;;17.38;5.65;;;;;;;;;;4974689;28;20058;-76
2024/01/27 00:07:03;;;;;;;21.90;5.60;;;;;;;;;;4974396;28;20051;-76
2024/01/27 00:09:31;;;;;;;20.92;5.43;;;;;;;;;;4978286;28;20051;-76
2024/01/27 00:11:58;;;;;;;16.17;5.45;;;;;;;;;;4977649;28;20050;-76
2024/01/27 00:14:25;;;;;;;20.17;5.28;;;;;;;;;;4977516;28;20054;-76
2024/01/27 00:16:52;;;;;;;16.65;5.47;;;;;;;;;;4977828;28;20070;-76
2024/01/27 00:19:18;;;;;;;19.67;5.72;;;;;;;;;;4978150;28;20504;-76
2024/01/27 00:21:45;;;;;;;21.02;5.53;;;;;;;;;;4977895;28;20055;-76
2024/01/27 00:24:14;;;;;;;16.85;5.10;;;;;;;;;;4977903;28;20055;-76
2024/01/27 00:26:42;;;;;;;23.15;6.13;;;;;;;;;;4977843;28;20062;-76
2024/01/27 00:29:09;;;;;;;23.80;5.55;;;;;;;;;;4976557;28;20484;-76
2024/01/27 00:31:35;;;;;;;15.93;5.30;;;;;;;;;;4977849;28;20058;-76
2024/01/27 00:34:02;;;;;;;18.15;5.65;;;;;;;;;;4978504;28;20055;-76
2024/01/27 00:36:29;;;;;;;14.57;5.28;;;;;;;;;;4977629;28;20054;-76
2024/01/27 00:38:56;;;;;;;17.33;5.47;;;;;;;;;;4977606;28;20051;-76
2024/01/27 00:41:23;;;;;;;15.93;5.35;;;;;;;;;;4977650;28;20061;-76
2024/01/27 00:43:51;;;;;;;16.92;5.82;;;;;;;;;;4976576;28;20397;-77
2024/01/27 00:46:18;;;;;;;17.05;5.38;;;;;;;;;;4977471;28;20055;-76
2024/01/27 00:48:45;;;;;;;18.20;5.07;;;;;;;;;;4977877;28;20066;-76
2024/01/27 00:51:11;;;;;;;20.25;5.53;;;;;;;;;;4977456;28;20086;-76
2024/01/27 00:53:38;;;;;;;21.02;5.97;;;;;;;;;;4977490;28;20058;-76
2024/01/27 00:56:05;;;;;;;18.98;5.78;;;;;;;;;;4977974;28;20400;-76
2024/01/27 00:58:32;;;;;;;17.67;5.25;;;;;;;;;;4976710;28;20066;-76
2024/01/27 01:01:01;;;;;;;18.65;5.85;;;;;;;;;;4976673;28;20057;-76
2024/01/27 01:03:27;;;;;;;17.48;6.20;;;;;;;;;;4977189;28;20059;-76
2024/01/27 01:05:54;;;;;;;25.90;6.78;;;;;;;;;;4977343;28;20054;-77
2024/01/27 01:08:21;;;;;;;20.88;5.38;;;;;;;;;;4977921;28;20503;-76
2024/01/27 01:10:48;;;;;;;19.02;5.05;;;;;;;;;;4976810;28;20408;-76
2024/01/27 01:13:15;;;;;;;15.68;5.15;;;;;;;;;;4975412;28;20074;-76
2024/01/27 01:15:42;;;;;;;18.35;6.15;;;;;;;;;;4976132;28;20070;-76
2024/01/27 01:18:10;;;;;;;17.15;5.32;;;;;;;;;;4977118;28;20067;-76
2024/01/27 01:20:37;;;;;;;17.58;5.20;;;;;;;;;;4976232;28;20058;-76
2024/01/27 01:23:04;;;;;;;18.00;5.75;;;;;;;;;;4977351;28;20063;-76
2024/01/27 01:25:30;;;;;;;17.52;5.28;;;;;;;;;;4977624;28;20062;-76
2024/01/27 01:27:57;;;;;;;18.98;5.30;;;;;;;;;;4977509;28;20051;-77
2024/01/27 01:30:24;;;;;;;16.70;5.22;;;;;;;;;;4977318;28;20050;-77
2024/01/27 01:32:51;;;;;;;17.92;5.60;;;;;;;;;;4978429;28;20066;-76
2024/01/27 01:35:19;;;;;;;17.60;5.55;;;;;;;;;;4985345;28;20054;-77
2024/01/27 01:37:48;;;;;;;16.30;5.93;;;;;;;;;;4996604;28;20055;-77
2024/01/27 01:40:15;;;;;;;14.23;5.03;;;;;;;;;;4997053;28;20042;-77
2024/01/27 01:42:42;;;;;;;16.15;5.07;;;;;;;;;;4997682;28;20134;-77
2024/01/27 01:45:10;;;;;;;17.70;5.40;;;;;;;;;;4995107;28;20059;-77
2024/01/27 01:47:37;;;;;;;17.38;5.22;;;;;;;;;;4998233;28;20047;-77
2024/01/27 01:50:04;;;;;;;23.83;5.75;;;;;;;;;;4997388;28;20041;-77
2024/01/27 01:52:32;;;;;;;20.50;5.18;;;;;;;;;;4997876;28;20034;-76
2024/01/27 01:54:59;;;;;;;25.15;5.70;;;;;;;;;;4998336;28;20043;-77
2024/01/27 01:57:26;;;;;;;18.38;5.15;;;;;;;;;;4997473;28;20053;-76
2024/01/27 01:59:53;;;;;;;17.50;5.03;;;;;;;;;;4994013;28;20431;-76
2024/01/27 02:02:20;;;;;;;17.60;5.25;;;;;;;;;;4975719;28;20055;-78
2024/01/27 02:04:47;;;;;;;17.50;5.55;;;;;;;;;;4975301;28;20054;-78
2024/01/27 02:07:14;;;;;;;17.17;5.25;;;;;;;;;;4975216;28;20062;-78
2024/01/27 02:09:43;;;;;;;16.08;5.75;;;;;;;;;;4975018;28;20046;-79
2024/01/27 02:12:10;;;;;;;14.65;4.93;;;;;;;;;;4975194;28;20054;-78
2024/01/27 02:14:37;;;;;;;15.07;5.75;;;;;;;;;;4974448;28;20058;-78
2024/01/27 02:17:05;;;;;;;13.57;5.40;;;;;;;;;;4974965;28;20054;-78
2024/01/27 02:19:32;;;;;;;21.63;5.32;;;;;;;;;;4974868;28;20059;-79
2024/01/27 02:21:59;;;;;;;16.20;5.65;;;;;;;;;;4975202;28;20066;-79
2024/01/27 02:24:28;;;;;;;19.20;6.18;;;;;;;;;;4975400;28;20055;-79
2024/01/27 02:26:55;;;;;;;15.40;5.18;;;;;;;;;;4974949;28;20054;-78
2024/01/27 02:29:22;;;;;;;17.70;4.90;;;;;;;;;;4974682;28;20054;-79
2024/01/27 02:31:49;;;;;;;19.90;5.45;;;;;;;;;;4974763;28;20408;-79
2024/01/27 02:34:15;;;;;;;18.75;5.32;;;;;;;;;;4975233;28;20055;-79
2024/01/27 02:36:43;;;;;;;16.80;5.95;;;;;;;;;;4973432;28;20484;-78
2024/01/27 02:39:10;;;;;;;21.42;5.85;;;;;;;;;;4970832;28;20055;-79
2024/01/27 02:41:39;;;;;;;14.32;4.47;;;;;;;;;;4976076;28;20062;-79
2024/01/27 02:44:06;;;;;;;16.98;5.63;;;;;;;;;;4994029;28;20057;-78
2024/01/27 02:46:33;;;;;;;18.80;5.53;;;;;;;;;;4957461;28;20507;-78
2024/01/27 02:48:59;;;;;;;13.48;5.00;;;;;;;;;;4955846;28;20051;-78
2024/01/27 02:51:26;;;;;;;18.00;4.95;;;;;;;;;;4958976;28;20477;-78
2024/01/27 02:53:53;;;;;;;14.50;4.90;;;;;;;;;;4975124;28;20388;-79
2024/01/27 02:56:20;;;;;;;23.67;5.55;;;;;;;;;;4974698;28;20062;-79
2024/01/27 02:58:48;;;;;;;16.75;5.57;;;;;;;;;;4974970;28;20060;-79
2024/01/27 03:01:15;;;;;;;11.93;4.88;;;;;;;;;;4973148;28;20481;-78
2024/01/27 03:03:42;;;;;;;15.93;5.50;;;;;;;;;;4974554;28;20059;-79
2024/01/27 03:06:09;;;;;;;17.75;4.88;;;;;;;;;;4973913;28;20480;-79
2024/01/27 03:08:35;;;;;;;17.02;6.03;;;;;;;;;;4974211;28;20479;-79
2024/01/27 03:11:03;;;;;;;18.83;5.45;;;;;;;;;;4974532;28;20354;-78
2024/01/27 03:13:29;;;;;;;16.10;6.00;;;;;;;;;;4957120;28;20073;-79
2024/01/27 03:15:58;;;;;;;20.55;7.05;;;;;;;;;;4971193;28;20051;-78
2024/01/27 03:18:25;;;;;;;22.42;7.32;;;;;;;;;;4969104;28;20065;-79
2024/01/27 03:20:51;;;;;;;15.77;6.40;;;;;;;;;;4974324;28;20404;-79
2024/01/27 03:23:18;;;;;;;21.25;7.40;;;;;;;;;;4974138;28;20629;-79
2024/01/27 03:25:45;;;;;;;24.15;7.20;;;;;;;;;;4974335;28;20070;-79
2024/01/27 03:28:12;;;;;;;20.85;6.68;;;;;;;;;;4974451;28;20059;-79
2024/01/27 03:30:40;;;;;;;18.10;6.32;;;;;;;;;;4973823;28;20068;-78
2024/01/27 03:33:10;;;;;;;16.77;6.47;;;;;;;;;;4974324;28;20053;-79
2024/01/27 03:35:37;;;;;;;23.25;7.05;;;;;;;;;;4974408;28;20074;-79
2024/01/27 03:38:04;;;;;;;19.00;7.32;;;;;;;;;;4974399;28;20062;-79
2024/01/27 03:40:31;;;;;;;18.15;6.63;;;;;;;;;;4974319;28;20047;-79
2024/01/27 03:42:57;;;;;;;20.80;6.50;;;;;;;;;;4988211;28;20061;-78
2024/01/27 03:45:24;;;;;;;22.13;7.63;;;;;;;;;;4995664;28;20385;-78
2024/01/27 03:47:51;;;;;;;23.15;7.85;;;;;;;;;;4977768;28;20412;-79
2024/01/27 03:50:19;;;;;;;21.52;7.93;;;;;;;;;;4978269;28;20054;-78
2024/01/27 03:52:46;;;;;;;25.50;7.57;;;;;;;;;;4977953;28;20349;-79
2024/01/27 03:55:13;;;;;;;20.42;7.05;;;;;;;;;;4977576;28;20058;-79
2024/01/27 03:57:40;;;;;;;21.40;7.70;;;;;;;;;;4977634;28;20400;-78
2024/01/27 04:00:07;;;;;;;19.77;7.60;;;;;;;;;;4977675;28;20055;-79
2024/01/27 04:02:34;;;;;;;17.20;7.10;;;;;;;;;;4976289;28;20054;-78
2024/01/27 04:05:01;;;;;;;20.25;8.18;;;;;;;;;;4977683;28;20055;-78
2024/01/27 04:07:29;;;;;;;23.08;7.38;;;;;;;;;;4977200;28;20054;-79
2024/01/27 04:09:56;;;;;;;24.88;7.30;;;;;;;;;;4958005;29;20058;-78
2024/01/27 04:12:23;;;;;;;23.10;7.72;;;;;;;;;;4957683;29;20054;-79
2024/01/27 04:14:49;;;;;;;18.10;6.90;;;;;;;;;;4957812;29;20059;-79
2024/01/27 04:17:16;;;;;;;19.63;7.00;;;;;;;;;;4968697;28;20495;-79
2024/01/27 04:19:43;;;;;;;22.23;7.35;;;;;;;;;;4978246;28;20065;-78
2024/01/27 04:22:10;;;;;;;22.38;7.10;;;;;;;;;;4976609;28;20067;-79
2024/01/27 04:24:38;;;;;;;19.10;7.03;;;;;;;;;;4977191;28;20050;-79
2024/01/27 04:27:05;;;;;;;20.60;6.85;;;;;;;;;;4976606;28;20420;-79
2024/01/27 04:29:32;;;;;;;19.58;7.55;;;;;;;;;;4976797;28;20065;-79
2024/01/27 04:31:58;;;;;;;25.05;7.80;;;;;;;;;;4975937;28;20053;-78
2024/01/27 04:34:25;;;;;;;19.40;7.00;;;;;;;;;;4977035;28;20059;-78
2024/01/27 04:36:52;;;;;;;23.83;7.95;;;;;;;;;;4976858;28;20519;-78
2024/01/27 04:39:19;;;;;;;21.50;7.10;;;;;;;;;;4977059;28;20055;-78
2024/01/27 04:41:47;;;;;;;20.02;6.97;;;;;;;;;;4979375;28;20053;-78
2024/01/27 04:44:13;;;;;;;22.85;8.13;;;;;;;;;;4996891;28;20054;-78
2024/01/27 04:46:40;;;;;;;25.92;8.25;;;;;;;;;;4991928;28;20058;-78
2024/01/27 04:49:07;;;;;;;23.67;8.10;;;;;;;;;;4977021;28;20376;-78
2024/01/27 04:51:34;;;;;;;17.55;7.57;;;;;;;;;;4976521;28;20401;-78
2024/01/27 04:54:01;;;;;;;19.30;7.40;;;;;;;;;;4976350;28;20062;-78
2024/01/27 04:56:27;;;;;;;16.85;7.07;;;;;;;;;;4976320;28;20058;-78
2024/01/27 04:58:55;;;;;;;21.88;7.90;;;;;;;;;;4976676;28;20377;-79
2024/01/27 05:01:22;;;;;;;17.70;7.18;;;;;;;;;;4976240;28;20047;-78
2024/01/27 05:03:49;;;;;;;20.15;7.07;;;;;;;;;;4971750;28;20054;-78
2024/01/27 05:06:17;;;;;;;18.98;7.13;;;;;;;;;;4976204;28;20062;-78
2024/01/27 05:08:44;;;;;;;17.23;7.60;;;;;;;;;;4967398;28;20051;-79
2024/01/27 05:11:11;;;;;;;24.98;7.38;;;;;;;;;;4957114;29;20433;-78
2024/01/27 05:13:38;;;;;;;20.00;7.18;;;;;;;;;;4957102;28;20051;-78
2024/01/27 05:16:07;;;;;;;16.13;6.95;;;;;;;;;;4957311;29;20060;-78
2024/01/27 05:18:33;;;;;;;22.60;7.95;;;;;;;;;;4970575;28;20051;-78
2024/01/27 05:21:00;;;;;;;18.13;7.85;;;;;;;;;;4976231;28;20062;-78
2024/01/27 05:23:28;;;;;;;18.33;7.55;;;;;;;;;;4975929;28;20511;-78
2024/01/27 05:25:54;;;;;;;21.50;7.78;;;;;;;;;;4976199;28;20055;-77
2024/01/27 05:28:21;;;;;;;20.83;8.07;;;;;;;;;;4976283;28;20481;-77
2024/01/27 05:30:48;;;;;;;16.48;7.78;;;;;;;;;;4975832;28;20078;-78
2024/01/27 05:33:17;;;;;;;23.80;8.88;;;;;;;;;;4974658;28;20055;-78
2024/01/27 05:35:43;;;;;;;24.17;8.30;;;;;;;;;;4975862;28;20484;-77
2024/01/27 05:38:10;;;;;;;21.42;8.05;;;;;;;;;;4976178;28;20058;-78
2024/01/27 05:40:37;;;;;;;20.65;7.55;;;;;;;;;;4975764;28;20059;-77
2024/01/27 05:43:04;;;;;;;22.40;8.55;;;;;;;;;;4989198;28;20058;-78
2024/01/27 05:45:31;;;;;;;19.30;8.50;;;;;;;;;;4995122;28;20512;-78
2024/01/27 05:47:58;;;;;;;28.00;8.43;;;;;;;;;;4987508;28;20050;-78
2024/01/27 05:50:27;;;;;;;22.95;8.48;;;;;;;;;;4975931;28;20058;-78
2024/01/27 05:52:54;;;;;;;18.77;8.45;;;;;;;;;;4975821;28;20062;-78
2024/01/27 05:55:21;;;;;;;18.58;9.35;;;;;;;;;;4975603;28;20063;-78
2024/01/27 05:57:47;;;;;;;20.27;8.70;;;;;;;;;;4975189;28;20054;-78
2024/01/27 06:00:14;;;;;;;17.90;7.47;;;;;;;;;;4975394;28;20516;-78
2024/01/27 06:02:41;;;;;;;20.55;8.63;;;;;;;;;;4989844;28;20058;-78
2024/01/27 06:05:09;;;;;;;21.38;8.75;;;;;;;;;;4974283;28;20055;-78
2024/01/27 06:07:38;;;;;;;26.83;9.23;;;;;;;;;;4974728;28;20051;-78
2024/01/27 06:10:07;;;;;;;23.23;9.65;;;;;;;;;;4975480;28;20057;-78
2024/01/27 06:12:34;;;;;;;27.33;8.88;;;;;;;;;;4974735;28;20066;-78
2024/01/27 06:15:01;;;;;;;21.15;9.18;;;;;;;;;;4975376;28;20059;-78
2024/01/27 06:17:28;;;;;;;20.63;9.65;;;;;;;;;;4975105;28;20058;-78
2024/01/27 06:19:55;;;;;;;21.48;8.57;;;;;;;;;;4973633;28;20054;-78
2024/01/27 06:22:22;;;;;;;23.48;8.82;;;;;;;;;;4974712;28;20047;-78
2024/01/27 06:24:50;;;;;;;18.13;9.02;;;;;;;;;;4974882;28;20496;-78
2024/01/27 06:27:17;;;;;;;18.95;8.90;;;;;;;;;;4975305;28;20389;-78
2024/01/27 06:29:44;;;;;;;15.57;8.48;;;;;;;;;;4974692;28;20401;-78
2024/01/27 06:32:10;;;;;;;18.55;8.98;;;;;;;;;;4974927;28;20058;-78
2024/01/27 06:34:37;;;;;;;23.23;9.23;;;;;;;;;;4967761;28;20062;-78
2024/01/27 06:37:04;;;;;;;20.90;8.75;;;;;;;;;;4974873;28;20058;-79
2024/01/27 06:39:31;;;;;;;17.45;8.45;;;;;;;;;;4975505;28;20059;-79
2024/01/27 06:41:59;;;;;;;21.65;8.38;;;;;;;;;;4979462;28;20051;-78
2024/01/27 06:44:26;;;;;;;16.00;7.60;;;;;;;;;;4994392;28;20065;-78
2024/01/27 06:46:53;;;;;;;18.05;8.63;;;;;;;;;;4993723;28;20065;-78
2024/01/27 06:49:20;;;;;;;23.50;8.65;;;;;;;;;;4983407;28;20469;-78
2024/01/27 06:51:46;;;;;;;17.90;7.78;;;;;;;;;;4975031;28;20054;-79
2024/01/27 06:54:13;;;;;;;22.25;8.95;;;;;;;;;;4974247;28;20050;-78
2024/01/27 06:56:40;;;;;;;21.08;8.35;;;;;;;;;;4975226;28;20061;-79
2024/01/27 06:59:08;;;;;;;25.65;10.07;;;;;;;;;;4974757;28;20055;-78
2024/01/27 07:01:35;;;;;;;17.35;8.52;;;;;;;;;;4974439;28;20130;-79
2024/01/27 07:04:02;;;;;;;21.48;8.73;;;;;;;;;;4969965;28;20047;-79
2024/01/27 07:06:28;;;;;;;17.95;8.98;;;;;;;;;;4955401;29;20070;-78
2024/01/27 07:08:56;;;;;;;25.10;9.48;;;;;;;;;;4955477;29;20051;-79
2024/01/27 07:11:22;;;;;;;20.42;9.18;;;;;;;;;;4967479;28;20054;-78
2024/01/27 07:13:49;;;;;;;22.70;10.07;;;;;;;;;;4974670;28;20397;-78
2024/01/27 07:16:17;;;;;;;18.50;9.05;;;;;;;;;;4974625;28;20059;-78
2024/01/27 07:18:44;;;;;;;22.73;9.73;;;;;;;;;;4974781;28;20051;-78
2024/01/27 07:21:15;;;;;;;17.90;9.07;;;;;;;;;;4970563;28;20055;-78
2024/01/27 07:23:43;;;;;;;21.83;9.55;;;;;;;;;;4966179;28;20058;-78
2024/01/27 07:26:10;;;;;;;20.20;10.73;;;;;;;;;;4974706;28;20059;-78
2024/01/27 07:28:36;;;;;;;19.63;9.90;;;;;;;;;;4974450;28;20433;-78
2024/01/27 07:31:03;;;;;;;23.05;10.20;;;;;;;;;;4974047;28;20417;-79
2024/01/27 07:33:31;;;;;;;22.00;10.23;;;;;;;;;;4974001;28;20058;-78
2024/01/27 07:35:58;;;;;;;16.88;9.13;;;;;;;;;;4974225;28;20066;-78
2024/01/27 07:38:25;;;;;;;25.50;10.80;;;;;;;;;;4974326;28;20065;-78
2024/01/27 07:40:52;;;;;;;27.13;10.15;;;;;;;;;;4974467;28;20479;-78
2024/01/27 07:43:19;;;;;;;21.60;10.52;;;;;;;;;;4963647;28;20055;-78
2024/01/27 07:45:46;;;;;;;23.40;9.68;;;;;;;;;;4954679;29;20066;-78
2024/01/27 07:48:13;;;;;;;19.95;9.35;;;;;;;;;;4954970;28;20481;-78
2024/01/27 07:50:45;;;;;;;19.38;9.95;;;;;;;;;;4965850;28;20058;-78
2024/01/27 07:53:12;;;;;;;25.73;10.07;;;;;;;;;;4974099;28;20047;-79
2024/01/27 07:55:39;;;;;;;20.30;10.40;;;;;;;;;;4974348;28;20078;-79
2024/01/27 07:58:06;;;;;;;20.65;9.93;;;;;;;;;;4974521;28;20050;-78
2024/01/27 08:00:33;;;;;;;25.13;13.18;;;;;;;;;;4966294;28;20055;-79
2024/01/27 08:03:00;;;;;;;21.70;10.00;;;;;;;;;;4973715;28;20484;-78
2024/01/27 08:05:27;;;;;;;17.73;8.30;;;;;;;;;;4973126;28;20397;-78
2024/01/27 08:07:55;;;;;;;22.10;9.15;;;;;;;;;;4973861;28;20059;-79
2024/01/27 08:10:23;;;;;;;17.60;9.45;;;;;;;;;;4974071;28;20139;-78
2024/01/27 08:12:49;;;;;;;21.15;10.27;;;;;;;;;;4973813;28;20066;-78
2024/01/27 08:15:16;;;;;;;18.50;9.90;;;;;;;;;;4974418;28;20481;-78
2024/01/27 08:17:43;;;;;;;18.15;9.00;;;;;;;;;;4969962;28;20051;-78
2024/01/27 08:20:10;;;;;;;17.83;9.48;;;;;;;;;;4954849;29;20085;-78
2024/01/27 08:22:37;;;;;;;16.25;8.32;;;;;;;;;;4954577;28;20058;-78
2024/01/27 08:25:06;;;;;;;14.20;7.93;;;;;;;;;;4956200;28;20062;-78
2024/01/27 08:27:33;;;;;;;13.37;7.47;;;;;;;;;;4974331;28;20051;-79
2024/01/27 08:29:59;;;;;;;16.67;7.50;;;;;;;;;;4969828;28;20081;-79
2024/01/27 08:32:27;;;;;;;14.48;6.47;;;;;;;;;;4975396;28;20066;-80
2024/01/27 08:34:53;;;;;;;11.43;6.97;;;;;;;;;;4977382;28;20481;-80
2024/01/27 08:37:21;;;;;;;19.33;7.40;;;;;;;;;;4966000;28;20069;-80
2024/01/27 08:39:50;;;;;;;12.27;5.72;;;;;;;;;;4967816;28;20073;-79
2024/01/27 08:42:18;;;;;;;15.40;6.03;;;;;;;;;;4972546;28;20053;-79
2024/01/27 08:44:45;;;;;;;13.07;6.22;;;;;;;;;;4976025;28;20051;-79
2024/01/27 08:47:12;;;;;;;12.90;6.03;;;;;;;;;;4977310;28;20055;-77
2024/01/27 08:49:39;;;;;;;15.45;5.88;;;;;;;;;;4977598;28;20055;-77
2024/01/27 08:52:06;;;;;;;12.48;5.45;;;;;;;;;;4976625;28;20062;-77
2024/01/27 08:54:32;;;;;;;11.10;5.18;;;;;;;;;;4977493;28;20050;-77
2024/01/27 08:56:59;;;;;;;9.80;5.22;;;;;;;;;;4975796;28;20069;-78
2024/01/27 08:59:28;;;;;;;13.70;5.65;;;;;;;;;;4976947;28;20054;-78
2024/01/27 09:01:55;;;;;;;12.85;5.03;;;;;;;;;;4976240;28;20062;-77
2024/01/27 09:04:22;;;;;;;9.90;4.70;;;;;;;;;;4973114;28;20055;-77
2024/01/27 09:06:49;;;;;;;12.55;5.00;;;;;;;;;;4961373;28;20050;-78
2024/01/27 09:09:16;;;;;;;10.57;4.53;;;;;;;;;;4977379;28;20054;-78
2024/01/27 09:11:43;;;;;;;9.68;5.10;;;;;;;;;;4972655;28;20055;-77
2024/01/27 09:14:09;;;;;;;10.98;4.85;;;;;;;;;;4982400;28;20396;-77
2024/01/27 09:16:40;;;;;;;13.15;4.95;;;;;;;;;;4956850;28;20078;-76
2024/01/27 09:19:06;;;;;;;14.43;5.15;;;;;;;;;;4971209;28;20377;-77
2024/01/27 09:21:33;;;;;;;10.10;4.38;;;;;;;;;;4967143;28;20060;-75
2024/01/27 09:24:01;;;;;;;13.85;4.80;;;;;;;;;;4964661;28;20067;-77
2024/01/27 09:26:28;;;;;;;12.07;5.05;;;;;;;;;;4975412;28;20484;-77
2024/01/27 09:28:55;;;;;;;10.73;4.40;;;;;;;;;;4976125;28;20051;-77
2024/01/27 09:31:22;;;;;;;16.58;7.95;;;;;;;;;;4976352;28;20053;-78
2024/01/27 09:33:52;;;;;;;10.55;5.82;;;;;;;;;;4976688;28;20058;-78
2024/01/27 09:36:19;;;;;;;9.65;6.05;;;;;;;;;;4976893;28;20055;-78
2024/01/27 09:38:46;;;;;;;10.13;5.00;;;;;;;;;;4972572;28;20051;-77
2024/01/27 09:41:13;;;;;;;12.02;4.97;;;;;;;;;;4970345;28;20051;-77
2024/01/27 09:43:42;;;;;;;11.55;4.90;;;;;;;;;;4974270;28;20457;-78
2024/01/27 09:46:09;;;;;;;10.32;4.63;;;;;;;;;;4965925;28;20069;-77
2024/01/27 09:48:36;;;;;;;8.48;4.20;;;;;;;;;;4974046;28;20365;-77
2024/01/27 09:51:05;;;;;;;13.63;4.70;;;;;;;;;;4975190;28;20054;-77
2024/01/27 09:53:32;;;;;;;9.23;4.10;;;;;;;;;;4974379;28;20051;-77
2024/01/27 09:55:59;;;;;;;10.20;4.30;;;;;;;;;;4975331;28;20093;-78
2024/01/27 09:58:28;;;;;;;11.30;4.50;;;;;;;;;;4974802;28;20051;-77
2024/01/27 10:00:55;;;;;;;10.73;5.25;;;;;;;;;;4974543;28;20062;-77
2024/01/27 10:03:23;;;;;;;12.57;5.25;;;;;;;;;;4966076;28;20047;-79
2024/01/27 10:05:50;;;;;;;9.13;4.28;;;;;;;;;;4975061;28;20075;-78
2024/01/27 10:08:19;;;;;;;10.07;3.85;;;;;;;;;;4975112;28;20058;-82
2024/01/27 10:10:45;;;;;;;10.90;4.57;;;;;;;;;;4970225;28;20049;-83
2024/01/27 10:13:14;;;;;;;10.90;4.10;;;;;;;;;;4975532;28;20058;-81
2024/01/27 10:15:43;;;;;;;10.15;4.78;;;;;;;;;;4974782;28;20424;-79
2024/01/27 10:18:12;;;;;;;10.03;4.33;;;;;;;;;;4960308;28;20065;-78
2024/01/27 10:20:39;;;;;;;13.20;4.47;;;;;;;;;;4974791;28;20478;-79
2024/01/27 10:23:13;;;;;;;13.02;4.60;;;;;;;;;;4974905;28;20062;-78
2024/01/27 10:25:41;;;;;;;9.82;4.28;;;;;;;;;;4975102;28;20062;-80
2024/01/27 10:28:10;;;;;;;10.03;4.00;;;;;;;;;;4969933;28;20077;-80
2024/01/27 10:30:37;;;;;;;12.32;4.55;;;;;;;;;;4965135;28;20420;-78
2024/01/27 10:33:04;;;;;;;9.02;4.18;;;;;;;;;;4960387;28;20047;-79
2024/01/27 10:35:31;;;;;;;9.98;4.13;;;;;;;;;;4973604;28;20062;-78
2024/01/27 10:37:59;;;;;;;11.07;4.30;;;;;;;;;;4975462;28;20515;-82
2024/01/27 10:40:26;;;;;;;12.55;4.18;;;;;;;;;;4974796;28;20051;-78
2024/01/27 10:43:01;;;;;;;9.85;4.10;;;;;;;;;;4975282;28;20062;-80
2024/01/27 10:45:29;;;;;;;9.88;4.00;;;;;;;;;;4972990;28;19937;-81
2024/01/27 10:47:59;;;;;;;8.68;3.88;;;;;;;;;;4973240;28;20059;-80
2024/01/27 10:50:26;;;;;;;10.10;4.55;;;;;;;;;;4973021;28;20058;-79
2024/01/27 10:52:54;;;;;;;11.75;3.88;;;;;;;;;;4974490;28;20062;-80
2024/01/27 10:55:21;;;;;;;8.65;4.13;;;;;;;;;;4974522;28;20500;-79
2024/01/27 10:57:48;;;;;;;8.13;3.22;;;;;;;;;;4974538;28;20065;-79
2024/01/27 11:00:17;;;;;;;8.85;3.40;;;;;;;;;;4974211;28;20070;-79
2024/01/27 11:02:45;;;;;;;11.75;3.83;;;;;;;;;;4974590;28;20507;-74
2024/01/27 11:05:13;;;;;;;8.97;3.53;;;;;;;;;;4972890;28;20057;-75
2024/01/27 11:07:42;;;;;;;6.63;3.30;;;;;;;;;;4975594;28;20416;-74
2024/01/27 11:10:09;;;;;;;9.25;3.92;;;;;;;;;;4974166;28;20493;-74
2024/01/27 11:12:36;;;;;;;9.73;4.05;;;;;;;;;;4974579;28;20050;-75
2024/01/27 11:15:03;;;;;;;7.93;3.45;;;;;;;;;;4971031;28;20051;-73
2024/01/27 11:17:40;;;;;;;10.52;3.80;;;;;;;;;;4972263;28;20054;-81
2024/01/27 11:20:08;;;;;;;10.18;3.55;;;;;;;;;;4974062;28;20054;-80
2024/01/27 11:22:35;;;;;;;10.95;3.92;;;;;;;;;;4973997;28;20054;-78
2024/01/27 11:25:08;;;;;;;9.65;3.55;;;;;;;;;;4972564;28;20407;-79
2024/01/27 11:27:36;;;;;;;9.93;4.00;;;;;;;;;;4973868;28;20527;-80
2024/01/27 11:30:03;;;;;;;10.20;3.70;;;;;;;;;;4973268;28;20047;-80
2024/01/27 11:32:30;;;;;;;9.55;3.50;;;;;;;;;;4959945;28;20070;-80
2024/01/27 11:35:02;;;;;;;7.85;3.33;;;;;;;;;;4960448;28;20046;-80
2024/01/27 11:37:31;;;;;;;7.55;3.42;;;;;;;;;;4973408;28;20058;-80
2024/01/27 11:39:57;;;;;;;;;;;;;;;;;;4975764;28;20055;-80
2024/01/27 11:42:24;;;;;;;9.52;3.20;;;;;;;;;;4975489;28;19922;-79
2024/01/27 11:44:51;;;;;;;9.40;3.83;;;;;;;;;;4975518;28;20050;-79
2024/01/27 11:47:18;;;;;;;8.02;3.25;;;;;;;;;;4975774;28;20058;-81
2024/01/27 11:49:52;;;;;;;8.68;3.10;;;;;;;;;;4974719;28;20106;-79
2024/01/27 11:52:20;;;;;;;10.55;3.33;;;;;;;;;;4975966;28;20055;-79
2024/01/27 11:54:47;;;;;;;12.27;3.35;;;;;;;;;;4989157;28;20037;-79
2024/01/27 11:57:13;;;;;;;8.18;3.28;;;;;;;;;;4995908;28;20069;-80
2024/01/27 11:59:40;;;;;;;8.15;3.58;;;;;;;;;;4996616;28;20061;-80
2024/01/27 12:02:07;;;;;;;6.97;3.00;;;;;;;;;;4996286;28;20063;-80
2024/01/27 12:04:35;;;;;;;7.43;2.95;;;;;;;;;;4998084;28;20066;-79
2024/01/27 12:07:02;;;;;;;8.13;3.40;;;;;;;;;;4998941;28;20043;-79
2024/01/27 12:09:30;;;;;;;8.10;2.95;;;;;;;;;;5000275;28;20415;-80
2024/01/27 12:11:56;;;;;;;9.80;3.33;;;;;;;;;;5000077;28;20045;-80
2024/01/27 12:14:23;;;;;;;7.38;3.42;;;;;;;;;;5003173;28;20404;-79
2024/01/27 12:16:53;;;;;;;10.45;3.00;;;;;;;;;;4998258;28;20080;-80
2024/01/27 12:19:20;;;;;;;6.95;3.00;;;;;;;;;;4998927;28;20053;-80
2024/01/27 12:21:49;;;;;;;7.38;2.80;;;;;;;;;;4980313;28;20055;-80
2024/01/27 12:24:16;;;;;;;7.05;3.20;;;;;;;;;;4978137;28;20062;-80
2024/01/27 12:26:45;;;;;;;7.80;3.20;;;;;;;;;;4977632;28;20058;-80
2024/01/27 12:29:12;;;;;;;10.02;3.20;;;;;;;;;;4977409;28;20062;-81
2024/01/27 12:31:39;;;;;;;9.75;3.60;;;;;;;;;;4977672;28;20137;-80
2024/01/27 12:34:06;;;;;;;7.75;3.10;;;;;;;;;;4977888;28;20046;-80
2024/01/27 12:36:32;;;;;;;9.15;3.45;;;;;;;;;;4976800;28;20063;-80
2024/01/27 12:39:00;;;;;;;9.95;3.22;;;;;;;;;;4977114;28;20058;-80
2024/01/27 12:41:28;;;;;;;7.88;3.08;;;;;;;;;;4977515;28;20058;-80
2024/01/27 12:43:56;;;;;;;8.93;3.28;;;;;;;;;;4977641;28;20408;-79
2024/01/27 12:46:23;;;;;;;8.07;3.72;;;;;;;;;;4970689;28;20055;-80
2024/01/27 12:48:50;;;;;;;11.07;3.60;;;;;;;;;;4957395;29;20055;-80
2024/01/27 12:51:17;;;;;;;12.00;3.42;;;;;;;;;;4964700;28;20081;-80
2024/01/27 12:53:44;;;;;;;10.55;3.97;;;;;;;;;;4971820;28;20055;-84
2024/01/27 12:56:11;;;;;;;9.15;3.50;;;;;;;;;;4971639;28;20046;-83
2024/01/27 12:58:42;;;;;;;10.00;3.67;;;;;;;;;;4976635;28;20058;-86
2024/01/27 13:01:10;;;;;;;9.15;3.20;;;;;;;;;;4975335;28;20055;-84
2024/01/27 13:03:37;;;;;;;10.45;3.30;;;;;;;;;;4976596;28;20393;-81
2024/01/27 13:06:04;;;;;;;9.25;3.03;;;;;;;;;;4976109;28;20046;-82
2024/01/27 13:08:31;;;;;;;9.30;3.35;;;;;;;;;;4975876;28;20061;-82
2024/01/27 13:10:58;;;;;;;7.32;3.15;;;;;;;;;;4974153;28;20059;-82
2024/01/27 13:13:25;;;;;;;8.73;2.90;;;;;;;;;;4985586;28;20065;-82
2024/01/27 13:15:51;;;;;;;6.95;2.30;;;;;;;;;;4994123;28;20046;-82
2024/01/27 13:18:19;;;;;;;9.52;3.70;;;;;;;;;;4994636;28;20046;-82
2024/01/27 13:20:46;;;;;;;8.05;2.70;;;;;;;;;;4989736;28;20066;-82
2024/01/27 13:23:13;;;;;;;6.78;2.53;;;;;;;;;;4975197;28;20511;-82
2024/01/27 13:25:40;;;;;;;7.03;3.10;;;;;;;;;;4976064;28;20051;-83
2024/01/27 13:28:11;;;;;;;8.52;3.30;;;;;;;;;;4976609;28;20065;-83
2024/01/27 13:30:38;;;;;;;7.55;3.13;;;;;;;;;;4959867;28;20055;-83
2024/01/27 13:33:05;;;;;;;10.27;3.45;;;;;;;;;;4956883;29;20059;-83
2024/01/27 13:35:33;;;;;;;9.73;4.03;;;;;;;;;;4956633;28;20051;-81
2024/01/27 13:38:00;;;;;;;8.57;3.27;;;;;;;;;;4956730;29;20096;-82
2024/01/27 13:40:27;;;;;;;8.07;2.80;;;;;;;;;;4965560;28;20057;-82
2024/01/27 13:42:53;;;;;;;10.13;3.60;;;;;;;;;;4972034;28;20050;-83
2024/01/27 13:45:20;;;;;;;8.15;2.80;;;;;;;;;;4975753;28;20069;-83
2024/01/27 13:47:47;;;;;;;8.80;2.92;;;;;;;;;;4976176;28;20054;-83
2024/01/27 13:50:14;;;;;;;13.10;3.72;;;;;;;;;;4975978;28;20065;-82
2024/01/27 13:52:43;;;;;;;7.50;3.20;;;;;;;;;;4960660;28;20058;-83
2024/01/27 13:55:10;;;;;;;;;;;;;;;;;;4957073;29;20055;-82
2024/01/27 13:57:38;;;;;;;7.43;3.10;;;;;;;;;;4956240;29;19922;-82
2024/01/27 14:00:06;;;;;;;8.13;3.05;;;;;;;;;;4966754;28;20059;-82
2024/01/27 14:02:41;;;;;;;8.70;3.30;;;;;;;;;;4975631;28;20059;-83
2024/01/27 14:05:09;;;;;;;7.50;2.78;;;;;;;;;;4976141;28;20054;-81
2024/01/27 14:07:36;;;;;;;9.20;2.72;;;;;;;;;;4973481;28;20050;-81
2024/01/27 14:10:04;;;;;;;11.73;3.67;;;;;;;;;;4976044;28;20393;-82
2024/01/27 14:12:31;;;;;;;8.00;3.50;;;;;;;;;;4975233;28;20416;-82
2024/01/27 14:15:03;;;;;;;7.45;3.03;;;;;;;;;;4974923;28;20496;-82
2024/01/27 14:17:30;;;;;;;8.10;3.00;;;;;;;;;;4975547;28;20405;-82
2024/01/27 14:19:57;;;;;;;6.45;2.72;;;;;;;;;;4975154;28;20055;-82
2024/01/27 14:22:25;;;;;;;8.95;2.92;;;;;;;;;;4974135;28;20066;-82
2024/01/27 14:24:53;;;;;;;6.35;2.33;;;;;;;;;;4974880;28;20046;-82
2024/01/27 14:27:25;;;;;;;6.37;2.43;;;;;;;;;;4975087;28;20069;-82
2024/01/27 14:29:52;;;;;;;6.07;2.55;;;;;;;;;;4975425;28;20054;-83
2024/01/27 14:32:19;;;;;;;7.22;2.90;;;;;;;;;;4975356;28;20050;-81
2024/01/27 14:34:46;;;;;;;10.13;2.72;;;;;;;;;;4975771;28;20061;-81